sensor_id;sensor_type;location;lat;lon;timestamp;P1;durP1;ratioP1;P2;durP2;ratioP2
3280;SDS011;1652;51.318;6.202;2023-02-19T00:01:28;22.00;;;15.60;;
3280;SDS011;1652;51.318;6.202;2023-02-19T00:03:56;16.53;;;13.20;;
3280;SDS011;1652;51.318;6.202;2023-02-19T00:06:25;21.57;;;14.40;;
3280;SDS011;1652;51.318;6.202;2023-02-19T00:08:53;20.43;;;13.60;;
3280;SDS011;1652;51.318;6.202;2023-02-19T00:11:21;15.43;;;12.67;;
3280;SDS011;1652;51.318;6.202;2023-02-19T00:13:50;21.90;;;13.73;;
3280;SDS011;1652;51.318;6.202;2023-02-19T00:16:19;18.23;;;13.60;;
3280;SDS011;1652;51.318;6.202;2023-02-19T00:18:48;19.60;;;13.70;;
3280;SDS011;1652;51.318;6.202;2023-02-19T00:21:15;19.77;;;13.97;;
3280;SDS011;1652;51.318;6.202;2023-02-19T00:23:42;17.83;;;14.33;;
3280;SDS011;1652;51.318;6.202;2023-02-19T00:26:10;25.67;;;14.73;;
3280;SDS011;1652;51.318;6.202;2023-02-19T00:28:43;20.13;;;14.60;;
3280;SDS011;1652;51.318;6.202;2023-02-19T00:33:45;20.83;;;14.50;;
3280;SDS011;1652;51.318;6.202;2023-02-19T00:36:13;28.50;;;15.50;;
3280;SDS011;1652;51.318;6.202;2023-02-19T00:38:41;21.70;;;14.20;;
3280;SDS011;1652;51.318;6.202;2023-02-19T00:41:09;22.17;;;14.33;;
3280;SDS011;1652;51.318;6.202;2023-02-19T00:46:34;24.00;;;13.93;;
3280;SDS011;1652;51.318;6.202;2023-02-19T00:49:02;19.60;;;14.07;;
3280;SDS011;1652;51.318;6.202;2023-02-19T00:51:32;26.33;;;14.63;;
3280;SDS011;1652;51.318;6.202;2023-02-19T00:54:01;26.00;;;13.90;;
3280;SDS011;1652;51.318;6.202;2023-02-19T00:56:29;22.73;;;13.90;;
3280;SDS011;1652;51.318;6.202;2023-02-19T00:58:56;23.63;;;14.47;;
3280;SDS011;1652;51.318;6.202;2023-02-19T01:01:23;17.53;;;13.60;;
3280;SDS011;1652;51.318;6.202;2023-02-19T01:03:49;17.80;;;13.20;;
3280;SDS011;1652;51.318;6.202;2023-02-19T01:06:17;22.70;;;14.40;;
3280;SDS011;1652;51.318;6.202;2023-02-19T01:08:45;22.17;;;13.73;;
3280;SDS011;1652;51.318;6.202;2023-02-19T01:11:12;23.50;;;14.10;;
3280;SDS011;1652;51.318;6.202;2023-02-19T01:13:40;22.03;;;14.43;;
3280;SDS011;1652;51.318;6.202;2023-02-19T01:16:10;26.20;;;15.30;;
3280;SDS011;1652;51.318;6.202;2023-02-19T01:18:39;23.20;;;14.20;;
3280;SDS011;1652;51.318;6.202;2023-02-19T01:21:08;26.67;;;14.43;;
3280;SDS011;1652;51.318;6.202;2023-02-19T01:23:38;26.87;;;15.70;;
3280;SDS011;1652;51.318;6.202;2023-02-19T01:26:05;29.03;;;15.90;;
3280;SDS011;1652;51.318;6.202;2023-02-19T01:28:34;33.50;;;15.40;;
3280;SDS011;1652;51.318;6.202;2023-02-19T01:31:04;28.67;;;16.77;;
3280;SDS011;1652;51.318;6.202;2023-02-19T01:33:33;30.53;;;16.03;;
3280;SDS011;1652;51.318;6.202;2023-02-19T01:36:03;31.77;;;17.40;;
3280;SDS011;1652;51.318;6.202;2023-02-19T01:38:31;36.47;;;17.40;;
3280;SDS011;1652;51.318;6.202;2023-02-19T01:41:00;34.53;;;17.77;;
3280;SDS011;1652;51.318;6.202;2023-02-19T01:43:32;33.13;;;18.30;;
3280;SDS011;1652;51.318;6.202;2023-02-19T01:46:01;36.27;;;17.63;;
3280;SDS011;1652;51.318;6.202;2023-02-19T01:51:04;34.03;;;17.40;;
3280;SDS011;1652;51.318;6.202;2023-02-19T01:53:38;30.70;;;17.20;;
3280;SDS011;1652;51.318;6.202;2023-02-19T01:56:10;43.93;;;21.37;;
3280;SDS011;1652;51.318;6.202;2023-02-19T01:58:41;36.00;;;19.50;;
3280;SDS011;1652;51.318;6.202;2023-02-19T02:01:08;34.13;;;18.27;;
3280;SDS011;1652;51.318;6.202;2023-02-19T02:03:35;35.97;;;20.10;;
3280;SDS011;1652;51.318;6.202;2023-02-19T02:08:42;41.77;;;19.70;;
3280;SDS011;1652;51.318;6.202;2023-02-19T02:11:28;32.80;;;18.80;;
3280;SDS011;1652;51.318;6.202;2023-02-19T02:13:54;45.93;;;19.93;;
3280;SDS011;1652;51.318;6.202;2023-02-19T02:21:48;35.60;;;19.30;;
3280;SDS011;1652;51.318;6.202;2023-02-19T02:30:36;42.33;;;18.57;;
3280;SDS011;1652;51.318;6.202;2023-02-19T02:35:57;41.53;;;19.83;;
3280;SDS011;1652;51.318;6.202;2023-02-19T02:38:30;34.33;;;18.53;;
3280;SDS011;1652;51.318;6.202;2023-02-19T02:41:00;37.00;;;18.67;;
3280;SDS011;1652;51.318;6.202;2023-02-19T02:43:27;31.80;;;18.73;;
3280;SDS011;1652;51.318;6.202;2023-02-19T02:45:54;35.37;;;19.13;;
3280;SDS011;1652;51.318;6.202;2023-02-19T02:48:23;44.80;;;19.83;;
3280;SDS011;1652;51.318;6.202;2023-02-19T02:56:28;31.27;;;19.07;;
3280;SDS011;1652;51.318;6.202;2023-02-19T02:58:57;48.47;;;20.23;;
3280;SDS011;1652;51.318;6.202;2023-02-19T03:01:27;35.80;;;18.70;;
3280;SDS011;1652;51.318;6.202;2023-02-19T03:07:33;46.63;;;20.33;;
3280;SDS011;1652;51.318;6.202;2023-02-19T03:10:04;28.50;;;16.60;;
3280;SDS011;1652;51.318;6.202;2023-02-19T03:12:33;35.83;;;18.23;;
3280;SDS011;1652;51.318;6.202;2023-02-19T03:15:23;29.33;;;17.97;;
3280;SDS011;1652;51.318;6.202;2023-02-19T03:18:12;40.40;;;17.70;;
3280;SDS011;1652;51.318;6.202;2023-02-19T03:21:00;42.83;;;17.10;;
3280;SDS011;1652;51.318;6.202;2023-02-19T03:23:28;29.60;;;17.07;;
3280;SDS011;1652;51.318;6.202;2023-02-19T03:26:18;35.80;;;18.17;;
3280;SDS011;1652;51.318;6.202;2023-02-19T03:28:46;32.13;;;17.70;;
3280;SDS011;1652;51.318;6.202;2023-02-19T03:31:35;29.53;;;17.40;;
3280;SDS011;1652;51.318;6.202;2023-02-19T03:34:07;30.77;;;18.07;;
3280;SDS011;1652;51.318;6.202;2023-02-19T03:39:31;26.20;;;16.00;;
3280;SDS011;1652;51.318;6.202;2023-02-19T03:42:04;32.57;;;16.37;;
3280;SDS011;1652;51.318;6.202;2023-02-19T03:47:36;31.93;;;16.47;;
3280;SDS011;1652;51.318;6.202;2023-02-19T03:55:31;25.03;;;15.20;;
3280;SDS011;1652;51.318;6.202;2023-02-19T04:06:55;23.77;;;12.73;;
3280;SDS011;1652;51.318;6.202;2023-02-19T04:09:23;24.53;;;12.80;;
3280;SDS011;1652;51.318;6.202;2023-02-19T04:11:54;25.83;;;11.50;;
3280;SDS011;1652;51.318;6.202;2023-02-19T04:14:23;30.83;;;12.87;;
3280;SDS011;1652;51.318;6.202;2023-02-19T04:17:10;36.17;;;12.50;;
3280;SDS011;1652;51.318;6.202;2023-02-19T04:19:42;30.77;;;11.80;;
3280;SDS011;1652;51.318;6.202;2023-02-19T04:22:13;28.00;;;12.50;;
3280;SDS011;1652;51.318;6.202;2023-02-19T04:24:44;18.73;;;10.20;;
3280;SDS011;1652;51.318;6.202;2023-02-19T04:27:14;23.07;;;10.57;;
3280;SDS011;1652;51.318;6.202;2023-02-19T04:29:41;23.20;;;10.80;;
3280;SDS011;1652;51.318;6.202;2023-02-19T04:32:11;22.97;;;10.83;;
3280;SDS011;1652;51.318;6.202;2023-02-19T04:34:39;20.97;;;10.53;;
3280;SDS011;1652;51.318;6.202;2023-02-19T04:37:06;25.73;;;10.27;;
3280;SDS011;1652;51.318;6.202;2023-02-19T04:39:33;19.30;;;10.30;;
3280;SDS011;1652;51.318;6.202;2023-02-19T04:41:59;16.17;;;9.77;;
3280;SDS011;1652;51.318;6.202;2023-02-19T04:44:26;21.17;;;9.10;;
3280;SDS011;1652;51.318;6.202;2023-02-19T04:46:53;26.33;;;10.33;;
3280;SDS011;1652;51.318;6.202;2023-02-19T04:49:20;27.13;;;10.60;;
3280;SDS011;1652;51.318;6.202;2023-02-19T04:51:47;16.77;;;9.00;;
3280;SDS011;1652;51.318;6.202;2023-02-19T04:54:14;35.93;;;9.17;;
3280;SDS011;1652;51.318;6.202;2023-02-19T04:56:41;17.77;;;8.50;;
3280;SDS011;1652;51.318;6.202;2023-02-19T04:59:07;25.20;;;8.70;;
3280;SDS011;1652;51.318;6.202;2023-02-19T05:01:35;19.60;;;7.90;;
3280;SDS011;1652;51.318;6.202;2023-02-19T05:04:02;18.53;;;7.17;;
3280;SDS011;1652;51.318;6.202;2023-02-19T05:06:30;13.03;;;6.70;;
3280;SDS011;1652;51.318;6.202;2023-02-19T05:08:57;26.47;;;8.80;;
3280;SDS011;1652;51.318;6.202;2023-02-19T05:11:24;19.70;;;7.47;;
3280;SDS011;1652;51.318;6.202;2023-02-19T05:13:51;17.60;;;6.97;;
3280;SDS011;1652;51.318;6.202;2023-02-19T05:16:21;22.47;;;7.03;;
3280;SDS011;1652;51.318;6.202;2023-02-19T05:18:48;26.57;;;7.20;;
3280;SDS011;1652;51.318;6.202;2023-02-19T05:21:15;17.50;;;7.30;;
3280;SDS011;1652;51.318;6.202;2023-02-19T05:23:42;21.10;;;7.47;;
3280;SDS011;1652;51.318;6.202;2023-02-19T05:26:14;18.73;;;6.50;;
3280;SDS011;1652;51.318;6.202;2023-02-19T05:28:44;23.60;;;7.10;;
3280;SDS011;1652;51.318;6.202;2023-02-19T05:31:12;14.50;;;6.93;;
3280;SDS011;1652;51.318;6.202;2023-02-19T05:33:39;11.73;;;6.47;;
3280;SDS011;1652;51.318;6.202;2023-02-19T05:36:11;13.93;;;6.10;;
3280;SDS011;1652;51.318;6.202;2023-02-19T05:38:39;15.70;;;6.00;;
3280;SDS011;1652;51.318;6.202;2023-02-19T05:41:07;14.00;;;6.30;;
3280;SDS011;1652;51.318;6.202;2023-02-19T05:43:42;14.93;;;5.03;;
3280;SDS011;1652;51.318;6.202;2023-02-19T05:46:11;20.67;;;5.87;;
3280;SDS011;1652;51.318;6.202;2023-02-19T05:48:39;17.40;;;6.90;;
3280;SDS011;1652;51.318;6.202;2023-02-19T05:51:09;11.60;;;5.10;;
3280;SDS011;1652;51.318;6.202;2023-02-19T05:53:37;17.97;;;5.47;;
3280;SDS011;1652;51.318;6.202;2023-02-19T05:56:12;22.30;;;6.03;;
3280;SDS011;1652;51.318;6.202;2023-02-19T05:58:55;25.40;;;5.70;;
3280;SDS011;1652;51.318;6.202;2023-02-19T06:01:23;13.87;;;5.10;;
3280;SDS011;1652;51.318;6.202;2023-02-19T06:03:52;18.53;;;5.90;;
3280;SDS011;1652;51.318;6.202;2023-02-19T06:06:22;18.03;;;5.53;;
3280;SDS011;1652;51.318;6.202;2023-02-19T06:08:50;33.33;;;6.30;;
3280;SDS011;1652;51.318;6.202;2023-02-19T06:11:18;13.77;;;5.57;;
3280;SDS011;1652;51.318;6.202;2023-02-19T06:13:45;18.43;;;5.23;;
3280;SDS011;1652;51.318;6.202;2023-02-19T06:16:12;12.03;;;5.90;;
3280;SDS011;1652;51.318;6.202;2023-02-19T06:18:39;14.50;;;6.03;;
3280;SDS011;1652;51.318;6.202;2023-02-19T06:21:07;15.37;;;5.30;;
3280;SDS011;1652;51.318;6.202;2023-02-19T06:23:35;15.13;;;6.67;;
3280;SDS011;1652;51.318;6.202;2023-02-19T06:28:40;16.67;;;5.97;;
3280;SDS011;1652;51.318;6.202;2023-02-19T06:31:07;20.57;;;5.50;;
3280;SDS011;1652;51.318;6.202;2023-02-19T06:33:36;16.07;;;5.77;;
3280;SDS011;1652;51.318;6.202;2023-02-19T06:36:10;24.13;;;6.97;;
3280;SDS011;1652;51.318;6.202;2023-02-19T06:38:38;14.00;;;6.30;;
3280;SDS011;1652;51.318;6.202;2023-02-19T06:41:05;28.70;;;5.87;;
3280;SDS011;1652;51.318;6.202;2023-02-19T06:43:34;19.27;;;6.40;;
3280;SDS011;1652;51.318;6.202;2023-02-19T06:46:02;13.00;;;6.10;;
3280;SDS011;1652;51.318;6.202;2023-02-19T06:48:30;15.30;;;5.67;;
3280;SDS011;1652;51.318;6.202;2023-02-19T06:50:57;15.40;;;6.47;;
3280;SDS011;1652;51.318;6.202;2023-02-19T06:53:24;11.30;;;5.80;;
3280;SDS011;1652;51.318;6.202;2023-02-19T06:55:55;16.47;;;6.50;;
3280;SDS011;1652;51.318;6.202;2023-02-19T06:58:26;21.27;;;6.30;;
3280;SDS011;1652;51.318;6.202;2023-02-19T07:00:53;19.63;;;7.33;;
3280;SDS011;1652;51.318;6.202;2023-02-19T07:03:20;12.37;;;6.00;;
3280;SDS011;1652;51.318;6.202;2023-02-19T07:05:47;13.97;;;6.07;;
3280;SDS011;1652;51.318;6.202;2023-02-19T07:08:14;24.03;;;6.63;;
3280;SDS011;1652;51.318;6.202;2023-02-19T07:10:52;17.70;;;6.43;;
3280;SDS011;1652;51.318;6.202;2023-02-19T07:13:22;24.13;;;6.37;;
3280;SDS011;1652;51.318;6.202;2023-02-19T07:15:50;17.70;;;6.53;;
3280;SDS011;1652;51.318;6.202;2023-02-19T07:18:17;17.43;;;6.97;;
3280;SDS011;1652;51.318;6.202;2023-02-19T07:20:44;17.97;;;7.27;;
3280;SDS011;1652;51.318;6.202;2023-02-19T07:23:11;23.27;;;7.23;;
3280;SDS011;1652;51.318;6.202;2023-02-19T07:25:38;19.40;;;6.20;;
3280;SDS011;1652;51.318;6.202;2023-02-19T07:28:05;18.00;;;6.40;;
3280;SDS011;1652;51.318;6.202;2023-02-19T07:30:32;10.83;;;6.30;;
3280;SDS011;1652;51.318;6.202;2023-02-19T07:32:59;25.03;;;6.57;;
3280;SDS011;1652;51.318;6.202;2023-02-19T07:35:26;25.40;;;6.90;;
3280;SDS011;1652;51.318;6.202;2023-02-19T07:37:53;21.67;;;7.07;;
3280;SDS011;1652;51.318;6.202;2023-02-19T07:40:20;22.03;;;6.03;;
3280;SDS011;1652;51.318;6.202;2023-02-19T07:42:46;15.13;;;5.70;;
3280;SDS011;1652;51.318;6.202;2023-02-19T07:45:13;17.80;;;5.70;;
3280;SDS011;1652;51.318;6.202;2023-02-19T07:47:40;18.50;;;5.50;;
3280;SDS011;1652;51.318;6.202;2023-02-19T07:50:07;21.07;;;6.23;;
3280;SDS011;1652;51.318;6.202;2023-02-19T07:52:34;19.27;;;5.80;;
3280;SDS011;1652;51.318;6.202;2023-02-19T07:55:01;13.77;;;5.60;;
3280;SDS011;1652;51.318;6.202;2023-02-19T07:57:28;27.73;;;6.57;;
3280;SDS011;1652;51.318;6.202;2023-02-19T07:59:56;20.73;;;7.87;;
3280;SDS011;1652;51.318;6.202;2023-02-19T08:02:24;16.60;;;6.13;;
3280;SDS011;1652;51.318;6.202;2023-02-19T08:05:09;10.37;;;5.33;;
3280;SDS011;1652;51.318;6.202;2023-02-19T08:07:36;24.80;;;5.57;;
3280;SDS011;1652;51.318;6.202;2023-02-19T08:10:03;10.90;;;5.70;;
3280;SDS011;1652;51.318;6.202;2023-02-19T08:12:58;12.00;;;6.60;;
3280;SDS011;1652;51.318;6.202;2023-02-19T08:15:45;15.47;;;6.00;;
3280;SDS011;1652;51.318;6.202;2023-02-19T08:18:12;18.27;;;6.97;;
3280;SDS011;1652;51.318;6.202;2023-02-19T08:20:40;20.67;;;6.53;;
3280;SDS011;1652;51.318;6.202;2023-02-19T08:23:07;11.00;;;6.40;;
3280;SDS011;1652;51.318;6.202;2023-02-19T08:25:34;29.90;;;7.30;;
3280;SDS011;1652;51.318;6.202;2023-02-19T08:28:02;19.57;;;6.87;;
3280;SDS011;1652;51.318;6.202;2023-02-19T08:30:30;24.37;;;7.07;;
3280;SDS011;1652;51.318;6.202;2023-02-19T08:32:58;9.30;;;5.40;;
3280;SDS011;1652;51.318;6.202;2023-02-19T08:35:27;11.17;;;7.33;;
3280;SDS011;1652;51.318;6.202;2023-02-19T08:37:55;18.30;;;6.70;;
3280;SDS011;1652;51.318;6.202;2023-02-19T08:40:23;23.03;;;6.60;;
3280;SDS011;1652;51.318;6.202;2023-02-19T08:42:50;15.57;;;7.00;;
3280;SDS011;1652;51.318;6.202;2023-02-19T08:45:17;14.90;;;6.50;;
3280;SDS011;1652;51.318;6.202;2023-02-19T08:47:44;22.70;;;6.70;;
3280;SDS011;1652;51.318;6.202;2023-02-19T08:50:11;11.33;;;4.90;;
3280;SDS011;1652;51.318;6.202;2023-02-19T08:52:38;13.00;;;5.70;;
3280;SDS011;1652;51.318;6.202;2023-02-19T08:55:04;13.27;;;4.60;;
3280;SDS011;1652;51.318;6.202;2023-02-19T08:57:34;21.60;;;7.50;;
3280;SDS011;1652;51.318;6.202;2023-02-19T09:00:03;10.63;;;5.10;;
3280;SDS011;1652;51.318;6.202;2023-02-19T09:02:31;8.17;;;4.77;;
3280;SDS011;1652;51.318;6.202;2023-02-19T09:05:01;12.20;;;4.80;;
3280;SDS011;1652;51.318;6.202;2023-02-19T09:07:28;8.80;;;4.47;;
3280;SDS011;1652;51.318;6.202;2023-02-19T09:09:55;17.17;;;5.50;;
3280;SDS011;1652;51.318;6.202;2023-02-19T09:12:24;14.10;;;5.40;;
3280;SDS011;1652;51.318;6.202;2023-02-19T09:14:51;11.10;;;5.70;;
3280;SDS011;1652;51.318;6.202;2023-02-19T09:17:17;8.23;;;4.30;;
3280;SDS011;1652;51.318;6.202;2023-02-19T09:19:44;16.47;;;7.23;;
3280;SDS011;1652;51.318;6.202;2023-02-19T09:22:11;12.23;;;5.97;;
3280;SDS011;1652;51.318;6.202;2023-02-19T09:24:38;10.93;;;6.60;;
3280;SDS011;1652;51.318;6.202;2023-02-19T09:27:05;11.20;;;6.50;;
3280;SDS011;1652;51.318;6.202;2023-02-19T09:29:31;20.07;;;7.47;;
3280;SDS011;1652;51.318;6.202;2023-02-19T09:31:59;9.00;;;4.80;;
3280;SDS011;1652;51.318;6.202;2023-02-19T09:34:27;8.37;;;5.23;;
3280;SDS011;1652;51.318;6.202;2023-02-19T09:36:54;12.00;;;6.03;;
3280;SDS011;1652;51.318;6.202;2023-02-19T09:39:21;7.73;;;5.23;;
3280;SDS011;1652;51.318;6.202;2023-02-19T09:41:48;9.03;;;5.70;;
3280;SDS011;1652;51.318;6.202;2023-02-19T09:44:29;6.50;;;5.17;;
3280;SDS011;1652;51.318;6.202;2023-02-19T09:47:00;5.43;;;4.80;;
3280;SDS011;1652;51.318;6.202;2023-02-19T09:49:39;8.47;;;5.67;;
3280;SDS011;1652;51.318;6.202;2023-02-19T09:52:21;11.00;;;5.60;;
3280;SDS011;1652;51.318;6.202;2023-02-19T09:55:02;9.00;;;5.90;;
3280;SDS011;1652;51.318;6.202;2023-02-19T09:57:38;11.27;;;6.27;;
3280;SDS011;1652;51.318;6.202;2023-02-19T10:00:12;8.37;;;6.33;;
3280;SDS011;1652;51.318;6.202;2023-02-19T10:03:01;7.20;;;5.70;;
3280;SDS011;1652;51.318;6.202;2023-02-19T10:05:34;14.50;;;7.17;;
3280;SDS011;1652;51.318;6.202;2023-02-19T10:08:06;9.93;;;6.77;;
3280;SDS011;1652;51.318;6.202;2023-02-19T10:10:39;6.80;;;6.10;;
3280;SDS011;1652;51.318;6.202;2023-02-19T10:15:53;13.43;;;7.83;;
3280;SDS011;1652;51.318;6.202;2023-02-19T10:18:27;7.03;;;6.43;;
3280;SDS011;1652;51.318;6.202;2023-02-19T10:20:56;10.03;;;5.93;;
3280;SDS011;1652;51.318;6.202;2023-02-19T10:23:23;7.97;;;6.07;;
3280;SDS011;1652;51.318;6.202;2023-02-19T10:25:52;7.00;;;5.77;;
3280;SDS011;1652;51.318;6.202;2023-02-19T10:28:25;6.47;;;5.87;;
3280;SDS011;1652;51.318;6.202;2023-02-19T10:30:56;5.57;;;5.07;;
3280;SDS011;1652;51.318;6.202;2023-02-19T10:33:24;13.43;;;7.97;;
3280;SDS011;1652;51.318;6.202;2023-02-19T10:38:27;10.00;;;7.80;;
3280;SDS011;1652;51.318;6.202;2023-02-19T10:41:05;13.97;;;8.03;;
3280;SDS011;1652;51.318;6.202;2023-02-19T10:43:35;9.97;;;7.20;;
3280;SDS011;1652;51.318;6.202;2023-02-19T10:46:06;9.70;;;7.20;;
3280;SDS011;1652;51.318;6.202;2023-02-19T10:48:44;10.40;;;8.40;;
3280;SDS011;1652;51.318;6.202;2023-02-19T10:51:16;13.30;;;9.40;;
3280;SDS011;1652;51.318;6.202;2023-02-19T10:53:47;13.33;;;8.73;;
3280;SDS011;1652;51.318;6.202;2023-02-19T10:56:23;10.57;;;9.50;;
3280;SDS011;1652;51.318;6.202;2023-02-19T10:58:52;20.47;;;7.43;;
3280;SDS011;1652;51.318;6.202;2023-02-19T11:01:20;12.03;;;7.50;;
3280;SDS011;1652;51.318;6.202;2023-02-19T11:03:49;23.30;;;14.40;;
3280;SDS011;1652;51.318;6.202;2023-02-19T11:06:24;12.77;;;8.30;;
3280;SDS011;1652;51.318;6.202;2023-02-19T11:08:53;12.93;;;7.07;;
3280;SDS011;1652;51.318;6.202;2023-02-19T11:13:56;8.10;;;6.60;;
3280;SDS011;1652;51.318;6.202;2023-02-19T11:16:47;10.73;;;6.50;;
3280;SDS011;1652;51.318;6.202;2023-02-19T11:22:02;6.47;;;5.87;;
3280;SDS011;1652;51.318;6.202;2023-02-19T11:25:04;8.57;;;6.30;;
3280;SDS011;1652;51.318;6.202;2023-02-19T11:27:52;9.60;;;6.93;;
3280;SDS011;1652;51.318;6.202;2023-02-19T11:35:42;9.73;;;6.30;;
3280;SDS011;1652;51.318;6.202;2023-02-19T11:38:10;7.33;;;6.43;;
3280;SDS011;1652;51.318;6.202;2023-02-19T11:40:40;7.33;;;6.63;;
3280;SDS011;1652;51.318;6.202;2023-02-19T11:45:47;10.27;;;6.73;;
3280;SDS011;1652;51.318;6.202;2023-02-19T11:51:18;9.33;;;7.10;;
3280;SDS011;1652;51.318;6.202;2023-02-19T11:56:48;6.50;;;6.10;;
3280;SDS011;1652;51.318;6.202;2023-02-19T11:59:40;11.10;;;7.20;;
3280;SDS011;1652;51.318;6.202;2023-02-19T12:10:46;11.17;;;8.63;;
3280;SDS011;1652;51.318;6.202;2023-02-19T12:13:29;10.10;;;8.00;;
3280;SDS011;1652;51.318;6.202;2023-02-19T12:19:02;16.40;;;10.00;;
3280;SDS011;1652;51.318;6.202;2023-02-19T12:22:01;10.83;;;8.67;;
3280;SDS011;1652;51.318;6.202;2023-02-19T12:35:57;9.60;;;6.90;;
3280;SDS011;1652;51.318;6.202;2023-02-19T12:38:42;10.33;;;7.87;;
3280;SDS011;1652;51.318;6.202;2023-02-19T12:43:52;10.57;;;7.60;;
3280;SDS011;1652;51.318;6.202;2023-02-19T12:46:28;7.30;;;6.30;;
3280;SDS011;1652;51.318;6.202;2023-02-19T12:49:02;7.83;;;7.03;;
3280;SDS011;1652;51.318;6.202;2023-02-19T12:56:46;5.97;;;5.60;;
3280;SDS011;1652;51.318;6.202;2023-02-19T12:59:32;6.30;;;5.90;;
3280;SDS011;1652;51.318;6.202;2023-02-19T13:04:57;6.97;;;5.50;;
3280;SDS011;1652;51.318;6.202;2023-02-19T13:07:37;5.50;;;5.20;;
3280;SDS011;1652;51.318;6.202;2023-02-19T13:10:24;5.63;;;5.33;;
3280;SDS011;1652;51.318;6.202;2023-02-19T13:12:51;8.37;;;4.50;;
3280;SDS011;1652;51.318;6.202;2023-02-19T13:15:32;4.67;;;4.27;;
3280;SDS011;1652;51.318;6.202;2023-02-19T13:18:04;7.97;;;4.60;;
3280;SDS011;1652;51.318;6.202;2023-02-19T13:20:42;4.07;;;3.97;;
3280;SDS011;1652;51.318;6.202;2023-02-19T13:23:13;3.43;;;3.33;;
3280;SDS011;1652;51.318;6.202;2023-02-19T13:31:30;3.10;;;2.90;;
3280;SDS011;1652;51.318;6.202;2023-02-19T13:37:13;2.40;;;2.30;;
3280;SDS011;1652;51.318;6.202;2023-02-19T13:39:48;3.20;;;2.87;;
3280;SDS011;1652;51.318;6.202;2023-02-19T13:42:22;3.87;;;3.00;;
3280;SDS011;1652;51.318;6.202;2023-02-19T13:45:00;7.13;;;6.10;;
3280;SDS011;1652;51.318;6.202;2023-02-19T13:50:23;4.07;;;3.67;;
3280;SDS011;1652;51.318;6.202;2023-02-19T13:52:56;4.03;;;3.00;;
3280;SDS011;1652;51.318;6.202;2023-02-19T14:03:27;5.73;;;3.20;;
3280;SDS011;1652;51.318;6.202;2023-02-19T14:05:56;8.20;;;4.10;;
3280;SDS011;1652;51.318;6.202;2023-02-19T14:11:15;10.53;;;3.30;;
3280;SDS011;1652;51.318;6.202;2023-02-19T14:16:47;3.87;;;3.50;;
3280;SDS011;1652;51.318;6.202;2023-02-19T14:30:30;4.70;;;4.40;;
3280;SDS011;1652;51.318;6.202;2023-02-19T14:33:02;6.63;;;4.40;;
3280;SDS011;1652;51.318;6.202;2023-02-19T14:35:38;4.40;;;3.40;;
3280;SDS011;1652;51.318;6.202;2023-02-19T14:38:10;5.10;;;3.63;;
3280;SDS011;1652;51.318;6.202;2023-02-19T14:40:46;5.57;;;4.30;;
3280;SDS011;1652;51.318;6.202;2023-02-19T14:43:15;9.37;;;7.70;;
3280;SDS011;1652;51.318;6.202;2023-02-19T14:45:44;10.47;;;7.50;;
3280;SDS011;1652;51.318;6.202;2023-02-19T14:48:25;4.70;;;4.50;;
3280;SDS011;1652;51.318;6.202;2023-02-19T14:50:55;5.00;;;4.60;;
3280;SDS011;1652;51.318;6.202;2023-02-19T14:53:25;3.50;;;2.90;;
3280;SDS011;1652;51.318;6.202;2023-02-19T14:55:54;3.97;;;3.77;;
3280;SDS011;1652;51.318;6.202;2023-02-19T14:58:27;3.57;;;2.57;;
3280;SDS011;1652;51.318;6.202;2023-02-19T15:00:57;3.43;;;3.23;;
3280;SDS011;1652;51.318;6.202;2023-02-19T15:03:25;5.70;;;3.73;;
3280;SDS011;1652;51.318;6.202;2023-02-19T15:05:58;7.77;;;3.20;;
3280;SDS011;1652;51.318;6.202;2023-02-19T15:08:41;2.83;;;2.63;;
3280;SDS011;1652;51.318;6.202;2023-02-19T15:11:14;2.70;;;2.50;;
3280;SDS011;1652;51.318;6.202;2023-02-19T15:13:49;9.93;;;7.43;;
3280;SDS011;1652;51.318;6.202;2023-02-19T15:16:20;5.23;;;2.87;;
3280;SDS011;1652;51.318;6.202;2023-02-19T15:18:51;3.63;;;3.17;;
3280;SDS011;1652;51.318;6.202;2023-02-19T15:21:23;3.40;;;2.87;;
3280;SDS011;1652;51.318;6.202;2023-02-19T15:23:52;2.87;;;2.67;;
3280;SDS011;1652;51.318;6.202;2023-02-19T15:26:31;2.80;;;2.60;;
3280;SDS011;1652;51.318;6.202;2023-02-19T15:29:09;4.73;;;4.33;;
3280;SDS011;1652;51.318;6.202;2023-02-19T15:31:50;3.20;;;2.90;;
3280;SDS011;1652;51.318;6.202;2023-02-19T15:34:19;2.90;;;2.60;;
3280;SDS011;1652;51.318;6.202;2023-02-19T15:36:48;2.80;;;2.60;;
3280;SDS011;1652;51.318;6.202;2023-02-19T15:39:39;2.57;;;2.40;;
3280;SDS011;1652;51.318;6.202;2023-02-19T15:42:06;2.03;;;1.23;;
3280;SDS011;1652;51.318;6.202;2023-02-19T15:55:18;7.23;;;5.57;;
3280;SDS011;1652;51.318;6.202;2023-02-19T16:00:44;1.40;;;1.30;;
3280;SDS011;1652;51.318;6.202;2023-02-19T16:03:16;4.53;;;1.90;;
3280;SDS011;1652;51.318;6.202;2023-02-19T16:05:45;3.60;;;3.40;;
3280;SDS011;1652;51.318;6.202;2023-02-19T16:08:26;3.33;;;3.23;;
3280;SDS011;1652;51.318;6.202;2023-02-19T16:11:06;3.40;;;3.20;;
3280;SDS011;1652;51.318;6.202;2023-02-19T16:13:49;3.17;;;2.57;;
3280;SDS011;1652;51.318;6.202;2023-02-19T16:16:22;10.30;;;6.40;;
3280;SDS011;1652;51.318;6.202;2023-02-19T16:18:55;4.53;;;3.87;;
3280;SDS011;1652;51.318;6.202;2023-02-19T16:21:23;3.00;;;2.80;;
3280;SDS011;1652;51.318;6.202;2023-02-19T16:23:52;2.43;;;2.33;;
3280;SDS011;1652;51.318;6.202;2023-02-19T16:26:26;3.13;;;2.83;;
3280;SDS011;1652;51.318;6.202;2023-02-19T16:28:53;5.00;;;2.90;;
3280;SDS011;1652;51.318;6.202;2023-02-19T16:31:21;3.43;;;3.13;;
3280;SDS011;1652;51.318;6.202;2023-02-19T16:33:49;4.23;;;3.53;;
3280;SDS011;1652;51.318;6.202;2023-02-19T16:39:13;4.63;;;3.73;;
3280;SDS011;1652;51.318;6.202;2023-02-19T16:46:56;2.43;;;2.23;;
3280;SDS011;1652;51.318;6.202;2023-02-19T16:49:27;1.83;;;1.73;;
3280;SDS011;1652;51.318;6.202;2023-02-19T16:51:53;2.97;;;2.20;;
3280;SDS011;1652;51.318;6.202;2023-02-19T16:54:20;3.03;;;2.73;;
3280;SDS011;1652;51.318;6.202;2023-02-19T16:56:47;1.97;;;1.87;;
3280;SDS011;1652;51.318;6.202;2023-02-19T16:59:14;1.93;;;1.73;;
3280;SDS011;1652;51.318;6.202;2023-02-19T17:01:40;1.90;;;1.80;;
3280;SDS011;1652;51.318;6.202;2023-02-19T17:04:08;4.53;;;3.97;;
3280;SDS011;1652;51.318;6.202;2023-02-19T17:06:37;3.53;;;3.30;;
3280;SDS011;1652;51.318;6.202;2023-02-19T17:09:05;2.60;;;1.97;;
3280;SDS011;1652;51.318;6.202;2023-02-19T17:11:34;1.90;;;1.80;;
3280;SDS011;1652;51.318;6.202;2023-02-19T17:14:01;19.60;;;10.00;;
3280;SDS011;1652;51.318;6.202;2023-02-19T17:16:29;4.77;;;4.43;;
3280;SDS011;1652;51.318;6.202;2023-02-19T17:18:59;4.13;;;2.60;;
3280;SDS011;1652;51.318;6.202;2023-02-19T17:21:28;3.50;;;3.03;;
3280;SDS011;1652;51.318;6.202;2023-02-19T17:23:55;2.40;;;2.20;;
3280;SDS011;1652;51.318;6.202;2023-02-19T17:26:24;2.10;;;1.20;;
3280;SDS011;1652;51.318;6.202;2023-02-19T17:28:56;1.10;;;1.00;;
3280;SDS011;1652;51.318;6.202;2023-02-19T17:31:24;4.73;;;1.50;;
3280;SDS011;1652;51.318;6.202;2023-02-19T17:33:52;5.23;;;1.60;;
3280;SDS011;1652;51.318;6.202;2023-02-19T17:36:20;2.33;;;1.10;;
3280;SDS011;1652;51.318;6.202;2023-02-19T17:38:48;1.80;;;1.30;;
3280;SDS011;1652;51.318;6.202;2023-02-19T17:41:15;2.10;;;2.00;;
3280;SDS011;1652;51.318;6.202;2023-02-19T17:43:42;3.17;;;1.50;;
3280;SDS011;1652;51.318;6.202;2023-02-19T17:46:18;1.57;;;1.30;;
3280;SDS011;1652;51.318;6.202;2023-02-19T17:48:47;4.43;;;4.07;;
3280;SDS011;1652;51.318;6.202;2023-02-19T17:51:14;4.27;;;3.80;;
3280;SDS011;1652;51.318;6.202;2023-02-19T17:53:41;3.60;;;2.07;;
3280;SDS011;1652;51.318;6.202;2023-02-19T17:56:09;9.07;;;6.40;;
3280;SDS011;1652;51.318;6.202;2023-02-19T17:58:41;4.17;;;3.10;;
3280;SDS011;1652;51.318;6.202;2023-02-19T18:01:07;2.17;;;2.07;;
3280;SDS011;1652;51.318;6.202;2023-02-19T18:03:35;3.43;;;3.23;;
3280;SDS011;1652;51.318;6.202;2023-02-19T18:06:01;1.40;;;1.30;;
3280;SDS011;1652;51.318;6.202;2023-02-19T18:08:28;3.70;;;3.37;;
3280;SDS011;1652;51.318;6.202;2023-02-19T18:10:55;1.93;;;1.47;;
3280;SDS011;1652;51.318;6.202;2023-02-19T18:13:22;1.20;;;1.10;;
3280;SDS011;1652;51.318;6.202;2023-02-19T18:15:49;1.40;;;1.30;;
3280;SDS011;1652;51.318;6.202;2023-02-19T18:18:15;1.43;;;1.20;;